Yvon Salaun — FV8222 — position and weather

sailwx.info

Track history (hours):
 
Tides and Currents Weather Stations Pressure Air Temp Water Temp Dewpoint Dewpoint Depression Visibility Wind Speed Wind Dir Waves Ship Positions

Yvon Salaun

Last reported at 2017-Aug-16 08:48 UTC. Time now 2017-Sep-21 07:09 UTC.
Position N 48°36' W 004°41'.
Warning: this ship's position is 35 days out of date.

Length 14 m.

Type: Ship. MMSI: 227024820.

Date/timePositionNaut miles runAvg speedWind from/ knotsBaromVisibWave heightAir tempDewpointWater temp
2017-Aug-16 08:48N 48°36' W 004°41'3 0.2
2017-Aug-15 16:33N 48°34' W 004°43'1 7.5
2017-Aug-15 16:23N 48°33' W 004°45'3 8.8
2017-Aug-15 16:00N 48°31' W 004°48'4 8.2
2017-Aug-15 15:31N 48°28' W 004°52'4 8.3
2017-Aug-15 14:58N 48°25' W 004°57'0 0.0
2017-Aug-15 10:58N 48°25' W 004°57'1 0.8
2017-Aug-15 09:34N 48°24' W 004°57'3 6.1
2017-Aug-15 09:08N 48°26' W 004°55'1 8.6
2017-Aug-15 09:00N 48°26' W 004°53'4 8.3
2017-Aug-15 08:30N 48°28' W 004°48'1 2.9
2017-Aug-15 08:00N 48°28' W 004°45'3 6.0
2017-Aug-15 07:30N 48°31' W 004°48'5 0.1
2017-Aug-13 19:10N 48°34' W 004°43'0 1.8
2017-Aug-13 18:59N 48°33' W 004°42'0 0.6
2017-Aug-13 18:26N 48°34' W 004°43'0 0.0
2017-Aug-12 17:54N 48°34' W 004°43'0 0.4
2017-Aug-12 17:24N 48°34' W 004°43'0 0.0
2017-Aug-12 16:44N 48°34' W 004°43'0 1.0
2017-Aug-12 16:23N 48°33' W 004°43'0 0.0
2017-Aug-12 08:44N 48°34' W 004°43'  
2017-Aug-06 18:48N 48°36' W 004°40'3 7.2
2017-Aug-06 18:25N 48°34' W 004°43'3 7.3
2017-Aug-06 18:00N 48°32' W 004°47'1 0.1
2017-Aug-06 08:53N 48°31' W 004°46'  
Track history (hours):
 
Tides and Currents Weather Stations Pressure Air Temp Water Temp Dewpoint Dewpoint Depression Visibility Wind Speed Wind Dir Waves Ship Positions

Yvon Salaun

Last reported at 2017-Aug-16 08:48 UTC. Time now 2017-Sep-21 07:09 UTC.
Position N 48°36' W 004°41'.
Warning: this ship's position is 35 days out of date.

Length 14 m.

Type: Ship. MMSI: 227024820.

Date/timePositionNaut miles runAvg speedWind from/ knotsBaromVisibWave heightAir tempDewpointWater temp
2017-Aug-16 08:48N 48°36' W 004°41'3 0.2
2017-Aug-15 16:33N 48°34' W 004°43'1 7.5
2017-Aug-15 16:23N 48°33' W 004°45'3 8.8
2017-Aug-15 16:00N 48°31' W 004°48'4 8.2
2017-Aug-15 15:31N 48°28' W 004°52'4 8.3
2017-Aug-15 14:58N 48°25' W 004°57'0 0.0
2017-Aug-15 10:58N 48°25' W 004°57'1 0.8
2017-Aug-15 09:34N 48°24' W 004°57'3 6.1
2017-Aug-15 09:08N 48°26' W 004°55'1 8.6
2017-Aug-15 09:00N 48°26' W 004°53'4 8.3
2017-Aug-15 08:30N 48°28' W 004°48'1 2.9
2017-Aug-15 08:00N 48°28' W 004°45'3 6.0
2017-Aug-15 07:30N 48°31' W 004°48'5 0.1
2017-Aug-13 19:10N 48°34' W 004°43'0 1.8
2017-Aug-13 18:59N 48°33' W 004°42'0 0.6
2017-Aug-13 18:26N 48°34' W 004°43'0 0.0
2017-Aug-12 17:54N 48°34' W 004°43'0 0.4
2017-Aug-12 17:24N 48°34' W 004°43'0 0.0
2017-Aug-12 16:44N 48°34' W 004°43'0 1.0
2017-Aug-12 16:23N 48°33' W 004°43'0 0.0
2017-Aug-12 08:44N 48°34' W 004°43'  
2017-Aug-06 18:48N 48°36' W 004°40'3 7.2
2017-Aug-06 18:25N 48°34' W 004°43'3 7.3
2017-Aug-06 18:00N 48°32' W 004°47'1 0.1
2017-Aug-06 08:53N 48°31' W 004°46'  

Dump ship's entire track history